Odin Finder — IZER — position and weather

sailwx.info

Track history (hours):
 
Tides and Currents Weather Stations Pressure Air Temp Water Temp Dewpoint Dewpoint Depression Visibility Wind Speed Wind Dir Waves Ship Positions

Odin Finder

Last reported at 2015-Jun-15 06:27 UTC. Time now 2015-Jul-03 22:05 UTC.
Position N 37°03' E 015°24'.
Warning: this ship's position is 18 days out of date.

Length 46 m; draft 4.8 m.

Type: Ship. MMSI: 247048200.

Date/timePositionNaut miles runAvg speedWind from/ knotsBaromVisibWave heightAir tempDewpointWater temp
2015-Jun-15 06:27N 37°03' E 015°24'8 7.2
2015-Jun-15 05:24N 36°56' E 015°24'16 7.3
2015-Jun-15 03:12N 36°42' E 015°15'9 7.4
2015-Jun-15 02:03N 36°36' E 015°07'4 7.2
2015-Jun-15 01:28N 36°36' E 015°02'10 8.4
2015-Jun-15 00:17N 36°39' E 014°50'6 8.3
2015-Jun-14 23:31N 36°40' E 014°42'8 8.2
2015-Jun-14 22:33N 36°41' E 014°32'8 8.1
2015-Jun-14 21:33N 36°46' E 014°25'8 8.3
2015-Jun-14 20:33N 36°51' E 014°16'8 8.4
2015-Jun-14 19:33N 36°57' E 014°08'9 9.0
2015-Jun-14 18:33N 37°02' E 013°59'4 3.9
2015-Jun-14 17:31N 37°06' E 013°56'0 0.0
2015-Jun-14 16:31N 37°06' E 013°56'0 0.0
2015-Jun-14 15:31N 37°06' E 013°56'0 0.0
2015-Jun-14 14:28N 37°06' E 013°56'0 0.0
2015-Jun-14 13:31N 37°06' E 013°56'0 0.0
2015-Jun-14 12:31N 37°06' E 013°56'0 0.0
2015-Jun-14 11:31N 37°06' E 013°56'0 0.0
2015-Jun-14 10:31N 37°06' E 013°56'0 0.0
2015-Jun-14 09:31N 37°06' E 013°56'0 0.0
2015-Jun-14 08:31N 37°06' E 013°56'0 0.0
2015-Jun-14 07:31N 37°06' E 013°56'0 0.0
2015-Jun-14 06:31N 37°06' E 013°56'0 0.0
2015-Jun-14 05:31N 37°06' E 013°56'0 0.0
2015-Jun-14 04:31N 37°06' E 013°56'0 0.0
2015-Jun-14 03:31N 37°06' E 013°56'0 0.0
2015-Jun-14 02:31N 37°06' E 013°56'0 0.0
2015-Jun-14 01:22N 37°06' E 013°56'0 0.0
2015-Jun-14 00:31N 37°06' E 013°56'0 0.0
2015-Jun-13 23:31N 37°06' E 013°56'0 0.0
2015-Jun-13 22:31N 37°06' E 013°56'0 0.0
2015-Jun-13 21:31N 37°06' E 013°56'0 0.0
2015-Jun-13 20:31N 37°06' E 013°56'0 0.0
2015-Jun-13 19:31N 37°06' E 013°56'0 0.0
2015-Jun-13 18:31N 37°06' E 013°56'0 0.0
2015-Jun-13 17:31N 37°06' E 013°56'0 0.0
2015-Jun-13 16:31N 37°06' E 013°56'0 0.0
2015-Jun-13 15:31N 37°06' E 013°56'0 0.0
2015-Jun-13 14:28N 37°06' E 013°56'0 0.0
2015-Jun-13 13:31N 37°06' E 013°56'0 0.0
2015-Jun-13 12:31N 37°06' E 013°56'0 0.0
2015-Jun-13 11:31N 37°06' E 013°56'0 0.0
2015-Jun-13 10:31N 37°06' E 013°56'0 0.0
2015-Jun-13 09:31N 37°06' E 013°56'0 0.0
2015-Jun-13 08:31N 37°06' E 013°56'0 0.0
2015-Jun-13 07:31N 37°06' E 013°56'0 0.0
2015-Jun-13 06:31N 37°06' E 013°56'0 0.0
2015-Jun-13 05:31N 37°06' E 013°56'0 0.0
2015-Jun-13 04:31N 37°06' E 013°56'0 0.0
2015-Jun-13 03:31N 37°06' E 013°56'0 0.0
2015-Jun-13 02:25N 37°06' E 013°56'0 0.0
2015-Jun-13 01:31N 37°06' E 013°56'0 0.0
2015-Jun-13 00:31N 37°06' E 013°56'0 0.0
2015-Jun-12 23:28N 37°06' E 013°56'0 0.0
2015-Jun-12 22:31N 37°06' E 013°56'0 0.0
2015-Jun-12 21:28N 37°06' E 013°56'0 0.0
2015-Jun-12 20:31N 37°06' E 013°56'0 0.0
2015-Jun-12 19:31N 37°06' E 013°56'0 0.0
2015-Jun-12 18:28N 37°06' E 013°56'0 0.0
2015-Jun-12 17:31N 37°06' E 013°56'0 0.0
2015-Jun-12 16:31N 37°06' E 013°56'0 0.0
2015-Jun-12 15:28N 37°06' E 013°56'0 0.0
2015-Jun-12 14:31N 37°06' E 013°56'0 0.0
2015-Jun-12 13:31N 37°06' E 013°56'0 0.0
2015-Jun-12 12:31N 37°06' E 013°56'0 0.0
2015-Jun-12 11:31N 37°06' E 013°56'0 0.0
2015-Jun-12 10:31N 37°06' E 013°56'0 0.0
2015-Jun-12 09:25N 37°06' E 013°56'0 0.0
2015-Jun-12 08:25N 37°06' E 013°56'0 0.0
2015-Jun-12 07:25N 37°06' E 013°56'0 0.0
2015-Jun-12 06:28N 37°06' E 013°56'0 0.0
2015-Jun-12 05:31N 37°06' E 013°56'0 0.0
2015-Jun-12 04:25N 37°06' E 013°56'0 0.0
2015-Jun-12 03:31N 37°06' E 013°56'0 0.0
2015-Jun-12 02:31N 37°06' E 013°56'0 0.0
2015-Jun-12 01:28N 37°06' E 013°56'0 0.0
2015-Jun-12 00:16N 37°06' E 013°56'0 0.0
2015-Jun-11 23:28N 37°06' E 013°56'0 0.0
2015-Jun-11 22:31N 37°06' E 013°56'0 0.0
2015-Jun-11 21:31N 37°06' E 013°56'0 0.0
2015-Jun-11 20:25N 37°06' E 013°56'0 0.0
2015-Jun-11 19:31N 37°06' E 013°56'0 0.0
2015-Jun-11 18:28N 37°06' E 013°56'0 0.0
2015-Jun-11 17:31N 37°06' E 013°56'0 0.0
2015-Jun-11 16:28N 37°06' E 013°56'0 0.0
2015-Jun-11 15:31N 37°06' E 013°56'0 0.0
2015-Jun-11 14:16N 37°06' E 013°56'0 0.0
2015-Jun-11 13:31N 37°06' E 013°56'0 0.0
2015-Jun-11 12:31N 37°06' E 013°56'0 0.0
2015-Jun-11 11:28N 37°06' E 013°56'0 0.0
2015-Jun-11 10:31N 37°06' E 013°56'0 0.0
2015-Jun-11 09:31N 37°06' E 013°56'0 0.0
2015-Jun-11 08:31N 37°06' E 013°56'0 0.0
2015-Jun-11 07:31N 37°06' E 013°56'0 0.0
2015-Jun-11 06:31N 37°06' E 013°56'0 0.0
2015-Jun-11 05:31N 37°06' E 013°56'0 0.0
2015-Jun-11 04:31N 37°06' E 013°56'0 0.0
2015-Jun-11 03:31N 37°06' E 013°56'0 0.0
2015-Jun-11 02:31N 37°06' E 013°56'0 0.0
2015-Jun-11 01:31N 37°06' E 013°56'0 0.0
2015-Jun-11 00:28N 37°06' E 013°56'0 0.0
2015-Jun-10 23:31N 37°06' E 013°56'0 0.0
2015-Jun-10 22:31N 37°06' E 013°56'0 0.0
2015-Jun-10 21:31N 37°06' E 013°56'0 0.0
2015-Jun-10 20:31N 37°06' E 013°56'0 0.0
2015-Jun-10 19:31N 37°06' E 013°56'0 0.0
2015-Jun-10 18:31N 37°06' E 013°56'0 0.0
2015-Jun-10 17:28N 37°06' E 013°56'0 0.1
2015-Jun-10 16:31N 37°06' E 013°56'0 0.0
2015-Jun-10 15:31N 37°06' E 013°56'0 0.0
2015-Jun-10 14:31N 37°06' E 013°56'0 0.0
2015-Jun-10 13:28N 37°06' E 013°56'0 0.0
2015-Jun-10 12:31N 37°06' E 013°56'0 0.0
2015-Jun-10 11:31N 37°06' E 013°56'0 0.0
2015-Jun-10 10:28N 37°06' E 013°56'0 0.0
2015-Jun-10 09:31N 37°06' E 013°56'0 0.0
2015-Jun-10 08:28N 37°06' E 013°56'0 0.0
2015-Jun-10 07:28N 37°06' E 013°56'0 0.0
2015-Jun-10 06:25N 37°06' E 013°56'0 0.0
2015-Jun-10 05:31N 37°06' E 013°56'0 0.0
2015-Jun-10 04:28N 37°06' E 013°56'0 0.0
2015-Jun-10 03:31N 37°06' E 013°56'0 0.0
2015-Jun-10 02:28N 37°06' E 013°56'0 0.0
2015-Jun-10 01:31N 37°06' E 013°56'0 0.0
2015-Jun-10 00:31N 37°06' E 013°56'0 0.0
2015-Jun-09 23:31N 37°06' E 013°56'0 0.0
2015-Jun-09 22:31N 37°06' E 013°56'0 0.0
2015-Jun-09 21:31N 37°06' E 013°56'0 0.0
2015-Jun-09 20:31N 37°06' E 013°56'0 0.0
2015-Jun-09 19:31N 37°06' E 013°56'0 0.0
2015-Jun-09 18:31N 37°06' E 013°56'0 0.0
2015-Jun-09 17:31N 37°06' E 013°56'0 0.0
2015-Jun-09 16:31N 37°06' E 013°56'0 0.0
2015-Jun-09 15:31N 37°06' E 013°56'0 0.0
2015-Jun-09 14:31N 37°06' E 013°56'0 0.0
2015-Jun-09 13:31N 37°06' E 013°56'0 0.0
2015-Jun-09 12:31N 37°06' E 013°56'0 0.0
2015-Jun-09 11:31N 37°06' E 013°56'0 0.0
2015-Jun-09 10:31N 37°06' E 013°56'0 0.0
2015-Jun-09 09:31N 37°06' E 013°56'0 0.0
2015-Jun-09 08:31N 37°06' E 013°56'0 0.0
2015-Jun-09 07:04N 37°06' E 013°56'0 0.0
2015-Jun-09 06:28N 37°06' E 013°56'0 0.0
2015-Jun-09 05:31N 37°06' E 013°56'0 0.0
2015-Jun-09 04:31N 37°06' E 013°56'0 0.0
2015-Jun-09 03:31N 37°06' E 013°56'0 0.0
2015-Jun-09 02:31N 37°06' E 013°56'0 0.0
2015-Jun-09 01:28N 37°06' E 013°56'0 0.0
2015-Jun-09 00:31N 37°06' E 013°56'0 0.0
2015-Jun-08 23:31N 37°06' E 013°56'0 0.0
2015-Jun-08 22:31N 37°06' E 013°56'0 0.0
2015-Jun-08 21:31N 37°06' E 013°56'0 0.0
2015-Jun-08 20:31N 37°06' E 013°56'0 0.0
2015-Jun-08 19:31N 37°06' E 013°56'0 0.0
2015-Jun-08 18:31N 37°06' E 013°56'0 0.0
2015-Jun-08 17:31N 37°06' E 013°56'0 0.0
2015-Jun-08 16:28N 37°06' E 013°56'0 0.0
2015-Jun-08 15:31N 37°06' E 013°56'0 0.0
2015-Jun-08 14:31N 37°06' E 013°56'0 0.0
2015-Jun-08 13:25N 37°06' E 013°56'0 0.0
2015-Jun-08 12:25N 37°06' E 013°56'0 0.0
2015-Jun-08 11:31N 37°06' E 013°56'0 0.0
2015-Jun-08 10:28N 37°06' E 013°56'0 0.0
2015-Jun-08 09:25N 37°06' E 013°56'0 0.0
2015-Jun-08 08:31N 37°06' E 013°56'0 0.0
2015-Jun-08 07:31N 37°06' E 013°56'0 0.0
2015-Jun-08 06:31N 37°06' E 013°56'0 0.0
2015-Jun-08 05:31N 37°06' E 013°56'0 0.0
2015-Jun-08 04:31N 37°06' E 013°56'0 0.0
2015-Jun-08 03:31N 37°06' E 013°56'0 0.0
2015-Jun-08 02:31N 37°06' E 013°56'0 0.0
2015-Jun-08 01:31N 37°06' E 013°56'0 0.0
2015-Jun-08 00:31N 37°06' E 013°56'0 0.0
2015-Jun-07 23:31N 37°06' E 013°56'0 0.0
2015-Jun-07 22:31N 37°06' E 013°56'0 0.0
2015-Jun-07 21:31N 37°06' E 013°56'0 0.0
2015-Jun-07 20:31N 37°06' E 013°56'0 0.0
2015-Jun-07 18:31N 37°06' E 013°56'0 0.0
2015-Jun-07 17:31N 37°06' E 013°56'0 0.0
2015-Jun-07 16:31N 37°06' E 013°56'0 0.0
2015-Jun-07 14:31N 37°06' E 013°56'0 0.1
2015-Jun-07 13:31N 37°06' E 013°56'0 0.0
2015-Jun-07 12:28N 37°06' E 013°56'0 0.0
2015-Jun-07 11:25N 37°06' E 013°56'0 0.0
2015-Jun-07 10:31N 37°06' E 013°56'0 0.0
2015-Jun-07 09:31N 37°06' E 013°56'0 0.0
2015-Jun-07 08:28N 37°06' E 013°56'0 0.0
2015-Jun-07 07:31N 37°06' E 013°56'0 0.0
2015-Jun-07 06:31N 37°06' E 013°56'0 0.0
2015-Jun-07 05:19N 37°06' E 013°56'0 0.0
2015-Jun-07 04:31N 37°06' E 013°56'0 0.0
2015-Jun-07 03:31N 37°06' E 013°56'0 0.0
2015-Jun-07 02:31N 37°06' E 013°56'0 0.0
2015-Jun-07 01:25N 37°06' E 013°56'0 0.0
2015-Jun-07 00:25N 37°06' E 013°56'0 0.0
2015-Jun-06 23:31N 37°06' E 013°56'0 0.0
2015-Jun-06 22:31N 37°06' E 013°56'0 0.0
2015-Jun-06 21:31N 37°06' E 013°56'0 0.0
2015-Jun-06 20:31N 37°06' E 013°56'0 0.0
2015-Jun-06 19:19N 37°06' E 013°56'0 0.0
2015-Jun-06 18:31N 37°06' E 013°56'0 0.0
2015-Jun-06 17:31N 37°06' E 013°56'0 0.0
2015-Jun-06 16:31N 37°06' E 013°56'0 0.0
2015-Jun-06 15:31N 37°06' E 013°56'0 0.0
2015-Jun-06 14:31N 37°06' E 013°56'0 0.0
2015-Jun-06 13:25N 37°06' E 013°56'0 0.0
2015-Jun-06 12:31N 37°06' E 013°56'0 0.0
2015-Jun-06 11:31N 37°06' E 013°56'0 0.0
2015-Jun-06 10:28N 37°06' E 013°56'0 0.0
2015-Jun-06 09:28N 37°06' E 013°56'0 0.0
2015-Jun-06 08:31N 37°06' E 013°56'0 0.0
2015-Jun-06 07:31N 37°06' E 013°56'0 0.1
2015-Jun-06 06:31N 37°06' E 013°56'0 0.0
2015-Jun-06 05:31N 37°06' E 013°56'0 0.0
2015-Jun-06 04:31N 37°06' E 013°56'0 0.0
2015-Jun-06 03:31N 37°06' E 013°56'0 0.0
2015-Jun-06 02:31N 37°06' E 013°56'0 0.0
2015-Jun-06 01:28N 37°06' E 013°56'0 0.0
2015-Jun-06 00:31N 37°06' E 013°56'0 0.0
2015-Jun-05 23:31N 37°06' E 013°56'0 0.0
2015-Jun-05 22:31N 37°06' E 013°56'0 0.0
2015-Jun-05 21:28N 37°06' E 013°56'0 0.0
2015-Jun-05 20:28N 37°06' E 013°56'0 0.0
2015-Jun-05 19:31N 37°06' E 013°56'0 0.0
2015-Jun-05 18:31N 37°06' E 013°56'0 0.0
2015-Jun-05 17:22N 37°06' E 013°56'0 0.0
2015-Jun-05 16:31N 37°06' E 013°56'0 0.0
2015-Jun-05 15:31N 37°06' E 013°56'0 0.0
2015-Jun-05 14:31N 37°06' E 013°56'0 0.0
2015-Jun-05 13:31N 37°06' E 013°56'0 0.0
2015-Jun-05 12:31N 37°06' E 013°56'0 0.0
2015-Jun-05 11:31N 37°06' E 013°56'0 0.0
2015-Jun-05 10:31N 37°06' E 013°56'0 0.0
2015-Jun-05 09:31N 37°06' E 013°56'0 0.0
2015-Jun-05 08:31N 37°06' E 013°56'0 0.0
2015-Jun-05 07:31N 37°06' E 013°56'0 0.0
2015-Jun-05 06:31N 37°06' E 013°56'  
Track history (hours):
 
Tides and Currents Weather Stations Pressure Air Temp Water Temp Dewpoint Dewpoint Depression Visibility Wind Speed Wind Dir Waves Ship Positions

Odin Finder

Last reported at 2015-Jun-15 06:27 UTC. Time now 2015-Jul-03 22:05 UTC.
Position N 37°03' E 015°24'.
Warning: this ship's position is 18 days out of date.

Length 46 m; draft 4.8 m.

Type: Ship. MMSI: 247048200.

Date/timePositionNaut miles runAvg speedWind from/ knotsBaromVisibWave heightAir tempDewpointWater temp
2015-Jun-15 06:27N 37°03' E 015°24'8 7.2
2015-Jun-15 05:24N 36°56' E 015°24'16 7.3
2015-Jun-15 03:12N 36°42' E 015°15'9 7.4
2015-Jun-15 02:03N 36°36' E 015°07'4 7.2
2015-Jun-15 01:28N 36°36' E 015°02'10 8.4
2015-Jun-15 00:17N 36°39' E 014°50'6 8.3
2015-Jun-14 23:31N 36°40' E 014°42'8 8.2
2015-Jun-14 22:33N 36°41' E 014°32'8 8.1
2015-Jun-14 21:33N 36°46' E 014°25'8 8.3
2015-Jun-14 20:33N 36°51' E 014°16'8 8.4
2015-Jun-14 19:33N 36°57' E 014°08'9 9.0
2015-Jun-14 18:33N 37°02' E 013°59'4 3.9
2015-Jun-14 17:31N 37°06' E 013°56'0 0.0
2015-Jun-14 16:31N 37°06' E 013°56'0 0.0
2015-Jun-14 15:31N 37°06' E 013°56'0 0.0
2015-Jun-14 14:28N 37°06' E 013°56'0 0.0
2015-Jun-14 13:31N 37°06' E 013°56'0 0.0
2015-Jun-14 12:31N 37°06' E 013°56'0 0.0
2015-Jun-14 11:31N 37°06' E 013°56'0 0.0
2015-Jun-14 10:31N 37°06' E 013°56'0 0.0
2015-Jun-14 09:31N 37°06' E 013°56'0 0.0
2015-Jun-14 08:31N 37°06' E 013°56'0 0.0
2015-Jun-14 07:31N 37°06' E 013°56'0 0.0
2015-Jun-14 06:31N 37°06' E 013°56'0 0.0
2015-Jun-14 05:31N 37°06' E 013°56'0 0.0
2015-Jun-14 04:31N 37°06' E 013°56'0 0.0
2015-Jun-14 03:31N 37°06' E 013°56'0 0.0
2015-Jun-14 02:31N 37°06' E 013°56'0 0.0
2015-Jun-14 01:22N 37°06' E 013°56'0 0.0
2015-Jun-14 00:31N 37°06' E 013°56'0 0.0
2015-Jun-13 23:31N 37°06' E 013°56'0 0.0
2015-Jun-13 22:31N 37°06' E 013°56'0 0.0
2015-Jun-13 21:31N 37°06' E 013°56'0 0.0
2015-Jun-13 20:31N 37°06' E 013°56'0 0.0
2015-Jun-13 19:31N 37°06' E 013°56'0 0.0
2015-Jun-13 18:31N 37°06' E 013°56'0 0.0
2015-Jun-13 17:31N 37°06' E 013°56'0 0.0
2015-Jun-13 16:31N 37°06' E 013°56'0 0.0
2015-Jun-13 15:31N 37°06' E 013°56'0 0.0
2015-Jun-13 14:28N 37°06' E 013°56'0 0.0
2015-Jun-13 13:31N 37°06' E 013°56'0 0.0
2015-Jun-13 12:31N 37°06' E 013°56'0 0.0
2015-Jun-13 11:31N 37°06' E 013°56'0 0.0
2015-Jun-13 10:31N 37°06' E 013°56'0 0.0
2015-Jun-13 09:31N 37°06' E 013°56'0 0.0
2015-Jun-13 08:31N 37°06' E 013°56'0 0.0
2015-Jun-13 07:31N 37°06' E 013°56'0 0.0
2015-Jun-13 06:31N 37°06' E 013°56'0 0.0
2015-Jun-13 05:31N 37°06' E 013°56'0 0.0
2015-Jun-13 04:31N 37°06' E 013°56'0 0.0
2015-Jun-13 03:31N 37°06' E 013°56'0 0.0
2015-Jun-13 02:25N 37°06' E 013°56'0 0.0
2015-Jun-13 01:31N 37°06' E 013°56'0 0.0
2015-Jun-13 00:31N 37°06' E 013°56'0 0.0
2015-Jun-12 23:28N 37°06' E 013°56'0 0.0
2015-Jun-12 22:31N 37°06' E 013°56'0 0.0
2015-Jun-12 21:28N 37°06' E 013°56'0 0.0
2015-Jun-12 20:31N 37°06' E 013°56'0 0.0
2015-Jun-12 19:31N 37°06' E 013°56'0 0.0
2015-Jun-12 18:28N 37°06' E 013°56'0 0.0
2015-Jun-12 17:31N 37°06' E 013°56'0 0.0
2015-Jun-12 16:31N 37°06' E 013°56'0 0.0
2015-Jun-12 15:28N 37°06' E 013°56'0 0.0
2015-Jun-12 14:31N 37°06' E 013°56'0 0.0
2015-Jun-12 13:31N 37°06' E 013°56'0 0.0
2015-Jun-12 12:31N 37°06' E 013°56'0 0.0
2015-Jun-12 11:31N 37°06' E 013°56'0 0.0
2015-Jun-12 10:31N 37°06' E 013°56'0 0.0
2015-Jun-12 09:25N 37°06' E 013°56'0 0.0
2015-Jun-12 08:25N 37°06' E 013°56'0 0.0
2015-Jun-12 07:25N 37°06' E 013°56'0 0.0
2015-Jun-12 06:28N 37°06' E 013°56'0 0.0
2015-Jun-12 05:31N 37°06' E 013°56'0 0.0
2015-Jun-12 04:25N 37°06' E 013°56'0 0.0
2015-Jun-12 03:31N 37°06' E 013°56'0 0.0
2015-Jun-12 02:31N 37°06' E 013°56'0 0.0
2015-Jun-12 01:28N 37°06' E 013°56'0 0.0
2015-Jun-12 00:16N 37°06' E 013°56'0 0.0
2015-Jun-11 23:28N 37°06' E 013°56'0 0.0
2015-Jun-11 22:31N 37°06' E 013°56'0 0.0
2015-Jun-11 21:31N 37°06' E 013°56'0 0.0
2015-Jun-11 20:25N 37°06' E 013°56'0 0.0
2015-Jun-11 19:31N 37°06' E 013°56'0 0.0
2015-Jun-11 18:28N 37°06' E 013°56'0 0.0
2015-Jun-11 17:31N 37°06' E 013°56'0 0.0
2015-Jun-11 16:28N 37°06' E 013°56'0 0.0
2015-Jun-11 15:31N 37°06' E 013°56'0 0.0
2015-Jun-11 14:16N 37°06' E 013°56'0 0.0
2015-Jun-11 13:31N 37°06' E 013°56'0 0.0
2015-Jun-11 12:31N 37°06' E 013°56'0 0.0
2015-Jun-11 11:28N 37°06' E 013°56'0 0.0
2015-Jun-11 10:31N 37°06' E 013°56'0 0.0
2015-Jun-11 09:31N 37°06' E 013°56'0 0.0
2015-Jun-11 08:31N 37°06' E 013°56'0 0.0
2015-Jun-11 07:31N 37°06' E 013°56'0 0.0
2015-Jun-11 06:31N 37°06' E 013°56'0 0.0
2015-Jun-11 05:31N 37°06' E 013°56'0 0.0
2015-Jun-11 04:31N 37°06' E 013°56'0 0.0
2015-Jun-11 03:31N 37°06' E 013°56'0 0.0
2015-Jun-11 02:31N 37°06' E 013°56'0 0.0
2015-Jun-11 01:31N 37°06' E 013°56'0 0.0
2015-Jun-11 00:28N 37°06' E 013°56'0 0.0
2015-Jun-10 23:31N 37°06' E 013°56'0 0.0
2015-Jun-10 22:31N 37°06' E 013°56'0 0.0
2015-Jun-10 21:31N 37°06' E 013°56'0 0.0
2015-Jun-10 20:31N 37°06' E 013°56'0 0.0
2015-Jun-10 19:31N 37°06' E 013°56'0 0.0
2015-Jun-10 18:31N 37°06' E 013°56'0 0.0
2015-Jun-10 17:28N 37°06' E 013°56'0 0.1
2015-Jun-10 16:31N 37°06' E 013°56'0 0.0
2015-Jun-10 15:31N 37°06' E 013°56'0 0.0
2015-Jun-10 14:31N 37°06' E 013°56'0 0.0
2015-Jun-10 13:28N 37°06' E 013°56'0 0.0
2015-Jun-10 12:31N 37°06' E 013°56'0 0.0
2015-Jun-10 11:31N 37°06' E 013°56'0 0.0
2015-Jun-10 10:28N 37°06' E 013°56'0 0.0
2015-Jun-10 09:31N 37°06' E 013°56'0 0.0
2015-Jun-10 08:28N 37°06' E 013°56'0 0.0
2015-Jun-10 07:28N 37°06' E 013°56'0 0.0
2015-Jun-10 06:25N 37°06' E 013°56'0 0.0
2015-Jun-10 05:31N 37°06' E 013°56'0 0.0
2015-Jun-10 04:28N 37°06' E 013°56'0 0.0
2015-Jun-10 03:31N 37°06' E 013°56'0 0.0
2015-Jun-10 02:28N 37°06' E 013°56'0 0.0
2015-Jun-10 01:31N 37°06' E 013°56'0 0.0
2015-Jun-10 00:31N 37°06' E 013°56'0 0.0
2015-Jun-09 23:31N 37°06' E 013°56'0 0.0
2015-Jun-09 22:31N 37°06' E 013°56'0 0.0
2015-Jun-09 21:31N 37°06' E 013°56'0 0.0
2015-Jun-09 20:31N 37°06' E 013°56'0 0.0
2015-Jun-09 19:31N 37°06' E 013°56'0 0.0
2015-Jun-09 18:31N 37°06' E 013°56'0 0.0
2015-Jun-09 17:31N 37°06' E 013°56'0 0.0
2015-Jun-09 16:31N 37°06' E 013°56'0 0.0
2015-Jun-09 15:31N 37°06' E 013°56'0 0.0
2015-Jun-09 14:31N 37°06' E 013°56'0 0.0
2015-Jun-09 13:31N 37°06' E 013°56'0 0.0
2015-Jun-09 12:31N 37°06' E 013°56'0 0.0
2015-Jun-09 11:31N 37°06' E 013°56'0 0.0
2015-Jun-09 10:31N 37°06' E 013°56'0 0.0
2015-Jun-09 09:31N 37°06' E 013°56'0 0.0
2015-Jun-09 08:31N 37°06' E 013°56'0 0.0
2015-Jun-09 07:04N 37°06' E 013°56'0 0.0
2015-Jun-09 06:28N 37°06' E 013°56'0 0.0
2015-Jun-09 05:31N 37°06' E 013°56'0 0.0
2015-Jun-09 04:31N 37°06' E 013°56'0 0.0
2015-Jun-09 03:31N 37°06' E 013°56'0 0.0
2015-Jun-09 02:31N 37°06' E 013°56'0 0.0
2015-Jun-09 01:28N 37°06' E 013°56'0 0.0
2015-Jun-09 00:31N 37°06' E 013°56'0 0.0
2015-Jun-08 23:31N 37°06' E 013°56'0 0.0
2015-Jun-08 22:31N 37°06' E 013°56'0 0.0
2015-Jun-08 21:31N 37°06' E 013°56'0 0.0
2015-Jun-08 20:31N 37°06' E 013°56'0 0.0
2015-Jun-08 19:31N 37°06' E 013°56'0 0.0
2015-Jun-08 18:31N 37°06' E 013°56'0 0.0
2015-Jun-08 17:31N 37°06' E 013°56'0 0.0
2015-Jun-08 16:28N 37°06' E 013°56'0 0.0
2015-Jun-08 15:31N 37°06' E 013°56'0 0.0
2015-Jun-08 14:31N 37°06' E 013°56'0 0.0
2015-Jun-08 13:25N 37°06' E 013°56'0 0.0
2015-Jun-08 12:25N 37°06' E 013°56'0 0.0
2015-Jun-08 11:31N 37°06' E 013°56'0 0.0
2015-Jun-08 10:28N 37°06' E 013°56'0 0.0
2015-Jun-08 09:25N 37°06' E 013°56'0 0.0
2015-Jun-08 08:31N 37°06' E 013°56'0 0.0
2015-Jun-08 07:31N 37°06' E 013°56'0 0.0
2015-Jun-08 06:31N 37°06' E 013°56'0 0.0
2015-Jun-08 05:31N 37°06' E 013°56'0 0.0
2015-Jun-08 04:31N 37°06' E 013°56'0 0.0
2015-Jun-08 03:31N 37°06' E 013°56'0 0.0
2015-Jun-08 02:31N 37°06' E 013°56'0 0.0
2015-Jun-08 01:31N 37°06' E 013°56'0 0.0
2015-Jun-08 00:31N 37°06' E 013°56'0 0.0
2015-Jun-07 23:31N 37°06' E 013°56'0 0.0
2015-Jun-07 22:31N 37°06' E 013°56'0 0.0
2015-Jun-07 21:31N 37°06' E 013°56'0 0.0
2015-Jun-07 20:31N 37°06' E 013°56'0 0.0
2015-Jun-07 18:31N 37°06' E 013°56'0 0.0
2015-Jun-07 17:31N 37°06' E 013°56'0 0.0
2015-Jun-07 16:31N 37°06' E 013°56'0 0.0
2015-Jun-07 14:31N 37°06' E 013°56'0 0.1
2015-Jun-07 13:31N 37°06' E 013°56'0 0.0
2015-Jun-07 12:28N 37°06' E 013°56'0 0.0
2015-Jun-07 11:25N 37°06' E 013°56'0 0.0
2015-Jun-07 10:31N 37°06' E 013°56'0 0.0
2015-Jun-07 09:31N 37°06' E 013°56'0 0.0
2015-Jun-07 08:28N 37°06' E 013°56'0 0.0
2015-Jun-07 07:31N 37°06' E 013°56'0 0.0
2015-Jun-07 06:31N 37°06' E 013°56'0 0.0
2015-Jun-07 05:19N 37°06' E 013°56'0 0.0
2015-Jun-07 04:31N 37°06' E 013°56'0 0.0
2015-Jun-07 03:31N 37°06' E 013°56'0 0.0
2015-Jun-07 02:31N 37°06' E 013°56'0 0.0
2015-Jun-07 01:25N 37°06' E 013°56'0 0.0
2015-Jun-07 00:25N 37°06' E 013°56'0 0.0
2015-Jun-06 23:31N 37°06' E 013°56'0 0.0
2015-Jun-06 22:31N 37°06' E 013°56'0 0.0
2015-Jun-06 21:31N 37°06' E 013°56'0 0.0
2015-Jun-06 20:31N 37°06' E 013°56'0 0.0
2015-Jun-06 19:19N 37°06' E 013°56'0 0.0
2015-Jun-06 18:31N 37°06' E 013°56'0 0.0
2015-Jun-06 17:31N 37°06' E 013°56'0 0.0
2015-Jun-06 16:31N 37°06' E 013°56'0 0.0
2015-Jun-06 15:31N 37°06' E 013°56'0 0.0
2015-Jun-06 14:31N 37°06' E 013°56'0 0.0
2015-Jun-06 13:25N 37°06' E 013°56'0 0.0
2015-Jun-06 12:31N 37°06' E 013°56'0 0.0
2015-Jun-06 11:31N 37°06' E 013°56'0 0.0
2015-Jun-06 10:28N 37°06' E 013°56'0 0.0
2015-Jun-06 09:28N 37°06' E 013°56'0 0.0
2015-Jun-06 08:31N 37°06' E 013°56'0 0.0
2015-Jun-06 07:31N 37°06' E 013°56'0 0.1
2015-Jun-06 06:31N 37°06' E 013°56'0 0.0
2015-Jun-06 05:31N 37°06' E 013°56'0 0.0
2015-Jun-06 04:31N 37°06' E 013°56'0 0.0
2015-Jun-06 03:31N 37°06' E 013°56'0 0.0
2015-Jun-06 02:31N 37°06' E 013°56'0 0.0
2015-Jun-06 01:28N 37°06' E 013°56'0 0.0
2015-Jun-06 00:31N 37°06' E 013°56'0 0.0
2015-Jun-05 23:31N 37°06' E 013°56'0 0.0
2015-Jun-05 22:31N 37°06' E 013°56'0 0.0
2015-Jun-05 21:28N 37°06' E 013°56'0 0.0
2015-Jun-05 20:28N 37°06' E 013°56'0 0.0
2015-Jun-05 19:31N 37°06' E 013°56'0 0.0
2015-Jun-05 18:31N 37°06' E 013°56'0 0.0
2015-Jun-05 17:22N 37°06' E 013°56'0 0.0
2015-Jun-05 16:31N 37°06' E 013°56'0 0.0
2015-Jun-05 15:31N 37°06' E 013°56'0 0.0
2015-Jun-05 14:31N 37°06' E 013°56'0 0.0
2015-Jun-05 13:31N 37°06' E 013°56'0 0.0
2015-Jun-05 12:31N 37°06' E 013°56'0 0.0
2015-Jun-05 11:31N 37°06' E 013°56'0 0.0
2015-Jun-05 10:31N 37°06' E 013°56'0 0.0
2015-Jun-05 09:31N 37°06' E 013°56'0 0.0
2015-Jun-05 08:31N 37°06' E 013°56'0 0.0
2015-Jun-05 07:31N 37°06' E 013°56'0 0.0
2015-Jun-05 06:31N 37°06' E 013°56'  

Dump ship's entire track history